sensor_id;sensor_type;location;lat;lon;timestamp;P1;durP1;ratioP1;P2;durP2;ratioP2
3943;SDS011;1986;52.546;13.428;2024-01-30T00:00:32;17.73;;;17.13;;
3943;SDS011;1986;52.546;13.428;2024-01-30T00:03:03;17.83;;;17.13;;
3943;SDS011;1986;52.546;13.428;2024-01-30T00:05:43;17.90;;;17.20;;
3943;SDS011;1986;52.546;13.428;2024-01-30T00:08:16;17.70;;;17.00;;
3943;SDS011;1986;52.546;13.428;2024-01-30T00:10:53;17.90;;;17.30;;
3943;SDS011;1986;52.546;13.428;2024-01-30T00:13:22;17.90;;;17.20;;
3943;SDS011;1986;52.546;13.428;2024-01-30T00:15:50;17.60;;;17.00;;
3943;SDS011;1986;52.546;13.428;2024-01-30T00:18:21;18.00;;;17.30;;
3943;SDS011;1986;52.546;13.428;2024-01-30T00:20:49;17.97;;;17.27;;
3943;SDS011;1986;52.546;13.428;2024-01-30T00:23:21;17.70;;;17.10;;
3943;SDS011;1986;52.546;13.428;2024-01-30T00:25:58;17.70;;;17.10;;
3943;SDS011;1986;52.546;13.428;2024-01-30T00:28:25;17.80;;;17.20;;
3943;SDS011;1986;52.546;13.428;2024-01-30T00:30:56;17.50;;;16.90;;
3943;SDS011;1986;52.546;13.428;2024-01-30T00:33:27;17.50;;;16.90;;
3943;SDS011;1986;52.546;13.428;2024-01-30T00:35:58;17.70;;;17.10;;
3943;SDS011;1986;52.546;13.428;2024-01-30T00:38:29;17.53;;;16.93;;
3943;SDS011;1986;52.546;13.428;2024-01-30T00:41:03;17.83;;;17.23;;
3943;SDS011;1986;52.546;13.428;2024-01-30T00:43:38;18.47;;;17.77;;
3943;SDS011;1986;52.546;13.428;2024-01-30T00:46:08;17.93;;;17.33;;
3943;SDS011;1986;52.546;13.428;2024-01-30T00:48:35;17.70;;;17.10;;
3943;SDS011;1986;52.546;13.428;2024-01-30T00:51:18;17.53;;;16.93;;
3943;SDS011;1986;52.546;13.428;2024-01-30T00:54:01;17.90;;;17.30;;
3943;SDS011;1986;52.546;13.428;2024-01-30T00:56:31;17.97;;;17.37;;
3943;SDS011;1986;52.546;13.428;2024-01-30T00:58:58;18.10;;;17.50;;
3943;SDS011;1986;52.546;13.428;2024-01-30T01:01:30;17.80;;;17.20;;
3943;SDS011;1986;52.546;13.428;2024-01-30T01:04:04;17.60;;;17.00;;
3943;SDS011;1986;52.546;13.428;2024-01-30T01:06:35;17.50;;;16.90;;
3943;SDS011;1986;52.546;13.428;2024-01-30T01:09:09;17.57;;;16.97;;
3943;SDS011;1986;52.546;13.428;2024-01-30T01:11:56;17.60;;;17.00;;
3943;SDS011;1986;52.546;13.428;2024-01-30T01:14:25;17.90;;;17.30;;
3943;SDS011;1986;52.546;13.428;2024-01-30T01:16:52;17.80;;;17.20;;
3943;SDS011;1986;52.546;13.428;2024-01-30T01:19:22;18.13;;;17.53;;
3943;SDS011;1986;52.546;13.428;2024-01-30T01:21:53;18.07;;;17.47;;
3943;SDS011;1986;52.546;13.428;2024-01-30T01:24:20;18.00;;;17.40;;
3943;SDS011;1986;52.546;13.428;2024-01-30T01:26:49;17.83;;;17.23;;
3943;SDS011;1986;52.546;13.428;2024-01-30T01:29:20;17.27;;;16.67;;
3943;SDS011;1986;52.546;13.428;2024-01-30T01:31:53;17.43;;;16.83;;
3943;SDS011;1986;52.546;13.428;2024-01-30T01:34:22;18.20;;;17.60;;
3943;SDS011;1986;52.546;13.428;2024-01-30T01:36:49;17.60;;;17.00;;
3943;SDS011;1986;52.546;13.428;2024-01-30T01:39:20;17.70;;;17.10;;
3943;SDS011;1986;52.546;13.428;2024-01-30T01:41:49;17.90;;;17.30;;
3943;SDS011;1986;52.546;13.428;2024-01-30T01:44:17;18.10;;;17.50;;
3943;SDS011;1986;52.546;13.428;2024-01-30T01:46:46;18.10;;;17.50;;
3943;SDS011;1986;52.546;13.428;2024-01-30T01:49:16;17.30;;;16.70;;
3943;SDS011;1986;52.546;13.428;2024-01-30T01:51:44;17.80;;;17.20;;
3943;SDS011;1986;52.546;13.428;2024-01-30T01:54:13;18.57;;;17.97;;
3943;SDS011;1986;52.546;13.428;2024-01-30T01:56:43;18.10;;;17.50;;
3943;SDS011;1986;52.546;13.428;2024-01-30T01:59:12;18.10;;;17.50;;
3943;SDS011;1986;52.546;13.428;2024-01-30T02:01:40;18.07;;;17.47;;
3943;SDS011;1986;52.546;13.428;2024-01-30T02:04:09;18.20;;;17.60;;
3943;SDS011;1986;52.546;13.428;2024-01-30T02:06:36;17.90;;;17.30;;
3943;SDS011;1986;52.546;13.428;2024-01-30T02:09:04;17.63;;;17.03;;
3943;SDS011;1986;52.546;13.428;2024-01-30T02:11:32;17.10;;;16.60;;
3943;SDS011;1986;52.546;13.428;2024-01-30T02:14:02;17.30;;;16.80;;
3943;SDS011;1986;52.546;13.428;2024-01-30T02:16:30;17.17;;;16.67;;
3943;SDS011;1986;52.546;13.428;2024-01-30T02:18:57;17.83;;;17.23;;
3943;SDS011;1986;52.546;13.428;2024-01-30T02:21:25;17.87;;;17.27;;
3943;SDS011;1986;52.546;13.428;2024-01-30T02:23:53;17.70;;;17.10;;
3943;SDS011;1986;52.546;13.428;2024-01-30T02:26:23;17.70;;;17.10;;
3943;SDS011;1986;52.546;13.428;2024-01-30T02:28:54;17.40;;;16.90;;
3943;SDS011;1986;52.546;13.428;2024-01-30T02:31:20;16.70;;;16.20;;
3943;SDS011;1986;52.546;13.428;2024-01-30T02:33:47;17.23;;;16.73;;
3943;SDS011;1986;52.546;13.428;2024-01-30T02:36:18;17.20;;;16.60;;
3943;SDS011;1986;52.546;13.428;2024-01-30T02:38:49;17.13;;;16.63;;
3943;SDS011;1986;52.546;13.428;2024-01-30T02:41:18;17.20;;;16.60;;
3943;SDS011;1986;52.546;13.428;2024-01-30T02:43:45;17.33;;;16.73;;
3943;SDS011;1986;52.546;13.428;2024-01-30T02:46:12;17.00;;;16.50;;
3943;SDS011;1986;52.546;13.428;2024-01-30T02:48:41;17.00;;;16.50;;
3943;SDS011;1986;52.546;13.428;2024-01-30T02:51:08;16.80;;;16.30;;
3943;SDS011;1986;52.546;13.428;2024-01-30T02:53:36;16.97;;;16.47;;
3943;SDS011;1986;52.546;13.428;2024-01-30T02:56:06;17.33;;;16.73;;
3943;SDS011;1986;52.546;13.428;2024-01-30T02:58:34;17.10;;;16.60;;
3943;SDS011;1986;52.546;13.428;2024-01-30T03:01:01;17.00;;;16.50;;
3943;SDS011;1986;52.546;13.428;2024-01-30T03:03:30;16.97;;;16.47;;
3943;SDS011;1986;52.546;13.428;2024-01-30T03:05:59;17.00;;;16.50;;
3943;SDS011;1986;52.546;13.428;2024-01-30T03:08:27;17.40;;;16.80;;
3943;SDS011;1986;52.546;13.428;2024-01-30T03:10:55;17.43;;;16.83;;
3943;SDS011;1986;52.546;13.428;2024-01-30T03:16:08;17.40;;;16.80;;
3943;SDS011;1986;52.546;13.428;2024-01-30T03:18:35;17.17;;;16.67;;
3943;SDS011;1986;52.546;13.428;2024-01-30T03:21:03;17.03;;;16.53;;
3943;SDS011;1986;52.546;13.428;2024-01-30T03:23:32;17.40;;;16.80;;
3943;SDS011;1986;52.546;13.428;2024-01-30T03:26:00;17.30;;;16.70;;
3943;SDS011;1986;52.546;13.428;2024-01-30T03:28:31;16.90;;;16.40;;
3943;SDS011;1986;52.546;13.428;2024-01-30T03:31:00;16.80;;;16.30;;
3943;SDS011;1986;52.546;13.428;2024-01-30T03:33:29;16.93;;;16.40;;
3943;SDS011;1986;52.546;13.428;2024-01-30T03:35:56;17.13;;;16.53;;
3943;SDS011;1986;52.546;13.428;2024-01-30T03:38:23;16.60;;;16.10;;
3943;SDS011;1986;52.546;13.428;2024-01-30T03:40:53;16.87;;;16.37;;
3943;SDS011;1986;52.546;13.428;2024-01-30T03:43:23;16.77;;;16.27;;
3943;SDS011;1986;52.546;13.428;2024-01-30T03:45:50;16.70;;;16.20;;
3943;SDS011;1986;52.546;13.428;2024-01-30T03:48:19;16.80;;;16.30;;
3943;SDS011;1986;52.546;13.428;2024-01-30T03:50:50;16.80;;;16.30;;
3943;SDS011;1986;52.546;13.428;2024-01-30T03:53:17;16.30;;;15.80;;
3943;SDS011;1986;52.546;13.428;2024-01-30T03:55:44;16.40;;;15.90;;
3943;SDS011;1986;52.546;13.428;2024-01-30T03:58:12;16.30;;;15.80;;
3943;SDS011;1986;52.546;13.428;2024-01-30T04:00:40;16.40;;;15.90;;
3943;SDS011;1986;52.546;13.428;2024-01-30T04:03:07;16.33;;;15.83;;
3943;SDS011;1986;52.546;13.428;2024-01-30T04:05:44;16.20;;;15.70;;
3943;SDS011;1986;52.546;13.428;2024-01-30T04:08:13;16.50;;;16.00;;
3943;SDS011;1986;52.546;13.428;2024-01-30T04:10:40;16.30;;;15.80;;
3943;SDS011;1986;52.546;13.428;2024-01-30T04:13:10;16.43;;;15.93;;
3943;SDS011;1986;52.546;13.428;2024-01-30T04:15:37;16.03;;;15.57;;
3943;SDS011;1986;52.546;13.428;2024-01-30T04:18:07;15.80;;;15.40;;
3943;SDS011;1986;52.546;13.428;2024-01-30T04:20:35;15.97;;;15.57;;
3943;SDS011;1986;52.546;13.428;2024-01-30T04:23:03;16.30;;;15.80;;
3943;SDS011;1986;52.546;13.428;2024-01-30T04:25:31;16.30;;;15.80;;
3943;SDS011;1986;52.546;13.428;2024-01-30T04:27:58;15.50;;;15.10;;
3943;SDS011;1986;52.546;13.428;2024-01-30T04:30:25;16.27;;;15.77;;
3943;SDS011;1986;52.546;13.428;2024-01-30T04:32:52;16.00;;;15.50;;
3943;SDS011;1986;52.546;13.428;2024-01-30T04:35:19;15.70;;;15.30;;
3943;SDS011;1986;52.546;13.428;2024-01-30T04:37:51;16.07;;;15.57;;
3943;SDS011;1986;52.546;13.428;2024-01-30T04:40:20;16.27;;;15.77;;
3943;SDS011;1986;52.546;13.428;2024-01-30T04:42:48;16.63;;;16.13;;
3943;SDS011;1986;52.546;13.428;2024-01-30T04:45:15;16.00;;;15.50;;
3943;SDS011;1986;52.546;13.428;2024-01-30T04:47:42;15.83;;;15.43;;
3943;SDS011;1986;52.546;13.428;2024-01-30T04:50:09;16.00;;;15.50;;
3943;SDS011;1986;52.546;13.428;2024-01-30T04:52:36;15.60;;;15.20;;
3943;SDS011;1986;52.546;13.428;2024-01-30T04:55:06;15.67;;;15.20;;
3943;SDS011;1986;52.546;13.428;2024-01-30T04:57:38;15.90;;;15.40;;
3943;SDS011;1986;52.546;13.428;2024-01-30T05:00:05;15.57;;;15.17;;
3943;SDS011;1986;52.546;13.428;2024-01-30T05:02:33;15.50;;;15.10;;
3943;SDS011;1986;52.546;13.428;2024-01-30T05:05:02;16.40;;;15.90;;
3943;SDS011;1986;52.546;13.428;2024-01-30T05:07:29;16.40;;;15.90;;
3943;SDS011;1986;52.546;13.428;2024-01-30T05:09:58;16.60;;;16.10;;
3943;SDS011;1986;52.546;13.428;2024-01-30T05:12:26;16.23;;;15.73;;
3943;SDS011;1986;52.546;13.428;2024-01-30T05:14:55;16.80;;;16.20;;
3943;SDS011;1986;52.546;13.428;2024-01-30T05:17:22;16.10;;;15.60;;
3943;SDS011;1986;52.546;13.428;2024-01-30T05:19:49;16.40;;;15.90;;
3943;SDS011;1986;52.546;13.428;2024-01-30T05:22:17;16.10;;;15.60;;
3943;SDS011;1986;52.546;13.428;2024-01-30T05:24:46;16.70;;;16.10;;
3943;SDS011;1986;52.546;13.428;2024-01-30T05:27:13;16.47;;;15.90;;
3943;SDS011;1986;52.546;13.428;2024-01-30T05:29:40;16.50;;;15.90;;
3943;SDS011;1986;52.546;13.428;2024-01-30T05:32:09;16.20;;;15.70;;
3943;SDS011;1986;52.546;13.428;2024-01-30T05:34:36;16.20;;;15.70;;
3943;SDS011;1986;52.546;13.428;2024-01-30T05:37:04;16.30;;;15.80;;
3943;SDS011;1986;52.546;13.428;2024-01-30T05:39:31;16.00;;;15.50;;
3943;SDS011;1986;52.546;13.428;2024-01-30T05:41:58;16.00;;;15.50;;
3943;SDS011;1986;52.546;13.428;2024-01-30T05:44:29;16.50;;;15.93;;
3943;SDS011;1986;52.546;13.428;2024-01-30T05:46:56;16.20;;;15.70;;
3943;SDS011;1986;52.546;13.428;2024-01-30T05:49:26;16.30;;;15.80;;
3943;SDS011;1986;52.546;13.428;2024-01-30T05:51:53;16.20;;;15.70;;
3943;SDS011;1986;52.546;13.428;2024-01-30T05:54:20;16.27;;;15.77;;
3943;SDS011;1986;52.546;13.428;2024-01-30T05:56:48;16.23;;;15.73;;
3943;SDS011;1986;52.546;13.428;2024-01-30T05:59:15;16.77;;;16.20;;
3943;SDS011;1986;52.546;13.428;2024-01-30T06:01:45;16.50;;;16.00;;
3943;SDS011;1986;52.546;13.428;2024-01-30T06:04:14;15.50;;;15.00;;
3943;SDS011;1986;52.546;13.428;2024-01-30T06:06:56;15.10;;;14.60;;
3943;SDS011;1986;52.546;13.428;2024-01-30T06:09:33;15.03;;;14.53;;
3943;SDS011;1986;52.546;13.428;2024-01-30T06:12:04;15.03;;;14.53;;
3943;SDS011;1986;52.546;13.428;2024-01-30T06:14:36;16.40;;;15.90;;
3943;SDS011;1986;52.546;13.428;2024-01-30T06:17:11;16.20;;;15.70;;
3943;SDS011;1986;52.546;13.428;2024-01-30T06:19:52;16.40;;;15.80;;
3943;SDS011;1986;52.546;13.428;2024-01-30T06:22:24;16.30;;;15.80;;
3943;SDS011;1986;52.546;13.428;2024-01-30T06:24:56;16.40;;;15.90;;
3943;SDS011;1986;52.546;13.428;2024-01-30T06:27:32;16.20;;;15.70;;
3943;SDS011;1986;52.546;13.428;2024-01-30T06:30:11;16.50;;;15.90;;
3943;SDS011;1986;52.546;13.428;2024-01-30T06:32:53;16.10;;;15.60;;
3943;SDS011;1986;52.546;13.428;2024-01-30T06:35:22;16.60;;;16.00;;
3943;SDS011;1986;52.546;13.428;2024-01-30T06:37:53;16.90;;;16.30;;
3943;SDS011;1986;52.546;13.428;2024-01-30T06:40:27;16.40;;;15.90;;
3943;SDS011;1986;52.546;13.428;2024-01-30T06:42:56;16.60;;;16.00;;
3943;SDS011;1986;52.546;13.428;2024-01-30T06:45:39;16.27;;;15.73;;
3943;SDS011;1986;52.546;13.428;2024-01-30T06:48:20;16.70;;;16.10;;
3943;SDS011;1986;52.546;13.428;2024-01-30T06:51:02;16.60;;;16.00;;
3943;SDS011;1986;52.546;13.428;2024-01-30T06:53:37;16.30;;;15.80;;
3943;SDS011;1986;52.546;13.428;2024-01-30T06:56:25;16.80;;;16.20;;
3943;SDS011;1986;52.546;13.428;2024-01-30T06:58:53;15.60;;;15.10;;
3943;SDS011;1986;52.546;13.428;2024-01-30T07:01:27;15.93;;;15.43;;
3943;SDS011;1986;52.546;13.428;2024-01-30T07:04:07;16.10;;;15.60;;
3943;SDS011;1986;52.546;13.428;2024-01-30T07:06:57;16.10;;;15.60;;
3943;SDS011;1986;52.546;13.428;2024-01-30T07:09:43;15.90;;;15.40;;
3943;SDS011;1986;52.546;13.428;2024-01-30T07:12:17;15.80;;;15.30;;
3943;SDS011;1986;52.546;13.428;2024-01-30T07:14:47;15.80;;;15.30;;
3943;SDS011;1986;52.546;13.428;2024-01-30T07:17:14;15.57;;;15.07;;
3943;SDS011;1986;52.546;13.428;2024-01-30T07:19:42;16.27;;;15.77;;
3943;SDS011;1986;52.546;13.428;2024-01-30T07:22:10;15.70;;;15.20;;
3943;SDS011;1986;52.546;13.428;2024-01-30T07:24:44;15.80;;;15.30;;
3943;SDS011;1986;52.546;13.428;2024-01-30T07:27:14;15.83;;;15.33;;
3943;SDS011;1986;52.546;13.428;2024-01-30T07:29:43;15.97;;;15.47;;
3943;SDS011;1986;52.546;13.428;2024-01-30T07:32:11;16.10;;;15.60;;
3943;SDS011;1986;52.546;13.428;2024-01-30T07:34:38;15.60;;;15.10;;
3943;SDS011;1986;52.546;13.428;2024-01-30T07:37:05;15.70;;;15.20;;
3943;SDS011;1986;52.546;13.428;2024-01-30T07:39:33;15.70;;;15.20;;
3943;SDS011;1986;52.546;13.428;2024-01-30T07:42:02;15.90;;;15.40;;
3943;SDS011;1986;52.546;13.428;2024-01-30T07:44:29;15.60;;;15.10;;
3943;SDS011;1986;52.546;13.428;2024-01-30T07:46:57;16.00;;;15.50;;
3943;SDS011;1986;52.546;13.428;2024-01-30T07:49:28;15.90;;;15.40;;
3943;SDS011;1986;52.546;13.428;2024-01-30T07:51:55;16.00;;;15.50;;
3943;SDS011;1986;52.546;13.428;2024-01-30T07:54:22;15.70;;;15.20;;
3943;SDS011;1986;52.546;13.428;2024-01-30T07:57:12;16.27;;;15.77;;
3943;SDS011;1986;52.546;13.428;2024-01-30T07:59:58;15.80;;;15.30;;
3943;SDS011;1986;52.546;13.428;2024-01-30T08:02:26;17.10;;;16.60;;
3943;SDS011;1986;52.546;13.428;2024-01-30T08:05:19;15.77;;;15.27;;
3943;SDS011;1986;52.546;13.428;2024-01-30T08:07:48;15.37;;;14.90;;
3943;SDS011;1986;52.546;13.428;2024-01-30T08:10:24;15.90;;;15.40;;
3943;SDS011;1986;52.546;13.428;2024-01-30T08:12:54;15.77;;;15.27;;
3943;SDS011;1986;52.546;13.428;2024-01-30T08:15:36;15.57;;;15.07;;
3943;SDS011;1986;52.546;13.428;2024-01-30T08:18:05;15.83;;;15.33;;
3943;SDS011;1986;52.546;13.428;2024-01-30T08:20:33;15.90;;;15.40;;
3943;SDS011;1986;52.546;13.428;2024-01-30T08:23:14;15.80;;;15.30;;
3943;SDS011;1986;52.546;13.428;2024-01-30T08:25:45;15.80;;;15.30;;
3943;SDS011;1986;52.546;13.428;2024-01-30T08:28:31;16.10;;;15.60;;
3943;SDS011;1986;52.546;13.428;2024-01-30T08:31:12;16.00;;;15.50;;
3943;SDS011;1986;52.546;13.428;2024-01-30T08:33:41;16.07;;;15.57;;
3943;SDS011;1986;52.546;13.428;2024-01-30T08:36:12;16.67;;;16.07;;
3943;SDS011;1986;52.546;13.428;2024-01-30T08:38:44;16.20;;;15.70;;
3943;SDS011;1986;52.546;13.428;2024-01-30T08:41:17;16.40;;;15.80;;
3943;SDS011;1986;52.546;13.428;2024-01-30T08:46:31;16.37;;;15.87;;
3943;SDS011;1986;52.546;13.428;2024-01-30T08:49:00;16.40;;;15.90;;
3943;SDS011;1986;52.546;13.428;2024-01-30T08:51:29;16.77;;;16.17;;
3943;SDS011;1986;52.546;13.428;2024-01-30T08:53:57;16.30;;;15.80;;
3943;SDS011;1986;52.546;13.428;2024-01-30T08:56:39;16.50;;;15.90;;
3943;SDS011;1986;52.546;13.428;2024-01-30T08:59:18;16.57;;;15.97;;
3943;SDS011;1986;52.546;13.428;2024-01-30T09:01:45;16.60;;;16.00;;
3943;SDS011;1986;52.546;13.428;2024-01-30T09:04:25;16.70;;;16.10;;
3943;SDS011;1986;52.546;13.428;2024-01-30T09:07:08;16.70;;;16.10;;
3943;SDS011;1986;52.546;13.428;2024-01-30T09:09:38;17.00;;;16.40;;
3943;SDS011;1986;52.546;13.428;2024-01-30T09:12:08;16.80;;;16.20;;
3943;SDS011;1986;52.546;13.428;2024-01-30T09:17:28;17.00;;;16.40;;
3943;SDS011;1986;52.546;13.428;2024-01-30T09:20:05;17.53;;;16.83;;
3943;SDS011;1986;52.546;13.428;2024-01-30T09:22:37;17.10;;;16.50;;
3943;SDS011;1986;52.546;13.428;2024-01-30T09:25:14;17.37;;;16.67;;
3943;SDS011;1986;52.546;13.428;2024-01-30T09:27:52;17.90;;;17.20;;
3943;SDS011;1986;52.546;13.428;2024-01-30T09:30:21;18.13;;;17.43;;
3943;SDS011;1986;52.546;13.428;2024-01-30T09:32:49;18.00;;;17.30;;
3943;SDS011;1986;52.546;13.428;2024-01-30T09:35:17;17.90;;;17.20;;
3943;SDS011;1986;52.546;13.428;2024-01-30T09:37:53;18.20;;;17.50;;
3943;SDS011;1986;52.546;13.428;2024-01-30T09:40:34;17.90;;;17.20;;
3943;SDS011;1986;52.546;13.428;2024-01-30T09:43:03;18.13;;;17.43;;
3943;SDS011;1986;52.546;13.428;2024-01-30T09:45:33;17.87;;;17.17;;
3943;SDS011;1986;52.546;13.428;2024-01-30T09:48:05;18.60;;;17.80;;
3943;SDS011;1986;52.546;13.428;2024-01-30T09:50:33;18.00;;;17.30;;
3943;SDS011;1986;52.546;13.428;2024-01-30T09:53:16;18.00;;;17.30;;
3943;SDS011;1986;52.546;13.428;2024-01-30T09:55:45;18.30;;;17.50;;
3943;SDS011;1986;52.546;13.428;2024-01-30T09:58:17;18.67;;;17.97;;
3943;SDS011;1986;52.546;13.428;2024-01-30T10:03:29;18.30;;;17.60;;
3943;SDS011;1986;52.546;13.428;2024-01-30T10:06:02;18.37;;;17.67;;
3943;SDS011;1986;52.546;13.428;2024-01-30T10:08:46;18.60;;;17.90;;
3943;SDS011;1986;52.546;13.428;2024-01-30T10:11:18;18.30;;;17.60;;
3943;SDS011;1986;52.546;13.428;2024-01-30T10:13:59;18.70;;;17.90;;
3943;SDS011;1986;52.546;13.428;2024-01-30T10:16:28;18.90;;;18.20;;
3943;SDS011;1986;52.546;13.428;2024-01-30T10:19:09;19.30;;;18.50;;
3943;SDS011;1986;52.546;13.428;2024-01-30T10:21:42;19.00;;;18.30;;
3943;SDS011;1986;52.546;13.428;2024-01-30T10:24:09;19.20;;;18.40;;
3943;SDS011;1986;52.546;13.428;2024-01-30T10:26:47;19.20;;;18.40;;
3943;SDS011;1986;52.546;13.428;2024-01-30T10:29:16;19.40;;;18.60;;
3943;SDS011;1986;52.546;13.428;2024-01-30T10:31:45;18.93;;;18.20;;
3943;SDS011;1986;52.546;13.428;2024-01-30T10:34:24;19.60;;;18.80;;
3943;SDS011;1986;52.546;13.428;2024-01-30T10:37:09;19.50;;;18.70;;
3943;SDS011;1986;52.546;13.428;2024-01-30T10:39:53;19.80;;;19.00;;
3943;SDS011;1986;52.546;13.428;2024-01-30T10:42:24;19.90;;;19.10;;
3943;SDS011;1986;52.546;13.428;2024-01-30T10:44:56;20.10;;;19.30;;
3943;SDS011;1986;52.546;13.428;2024-01-30T10:47:34;19.63;;;18.83;;
3943;SDS011;1986;52.546;13.428;2024-01-30T10:50:05;19.30;;;18.50;;
3943;SDS011;1986;52.546;13.428;2024-01-30T10:52:38;19.90;;;19.10;;
3943;SDS011;1986;52.546;13.428;2024-01-30T10:55:12;21.00;;;20.10;;
3943;SDS011;1986;52.546;13.428;2024-01-30T10:57:44;20.83;;;19.93;;
3943;SDS011;1986;52.546;13.428;2024-01-30T11:00:14;20.90;;;20.00;;
3943;SDS011;1986;52.546;13.428;2024-01-30T11:02:53;21.00;;;20.10;;
3943;SDS011;1986;52.546;13.428;2024-01-30T11:05:25;20.83;;;19.83;;
3943;SDS011;1986;52.546;13.428;2024-01-30T11:07:56;21.30;;;20.30;;
3943;SDS011;1986;52.546;13.428;2024-01-30T11:10:25;21.40;;;20.40;;
3943;SDS011;1986;52.546;13.428;2024-01-30T11:12:56;21.50;;;20.50;;
3943;SDS011;1986;52.546;13.428;2024-01-30T11:15:29;21.60;;;20.60;;
3943;SDS011;1986;52.546;13.428;2024-01-30T11:18:09;21.63;;;20.63;;
3943;SDS011;1986;52.546;13.428;2024-01-30T11:20:36;21.60;;;20.60;;
3943;SDS011;1986;52.546;13.428;2024-01-30T11:23:10;21.40;;;20.40;;
3943;SDS011;1986;52.546;13.428;2024-01-30T11:25:38;21.20;;;20.20;;
3943;SDS011;1986;52.546;13.428;2024-01-30T11:28:14;21.30;;;20.30;;
3943;SDS011;1986;52.546;13.428;2024-01-30T11:30:42;21.00;;;20.00;;
3943;SDS011;1986;52.546;13.428;2024-01-30T11:33:12;21.50;;;20.50;;
3943;SDS011;1986;52.546;13.428;2024-01-30T11:35:41;20.90;;;20.00;;
3943;SDS011;1986;52.546;13.428;2024-01-30T11:38:10;21.40;;;20.40;;
3943;SDS011;1986;52.546;13.428;2024-01-30T11:40:39;21.30;;;20.30;;
3943;SDS011;1986;52.546;13.428;2024-01-30T11:43:08;20.80;;;19.90;;
3943;SDS011;1986;52.546;13.428;2024-01-30T11:45:35;20.70;;;19.70;;
3943;SDS011;1986;52.546;13.428;2024-01-30T11:48:04;20.80;;;19.80;;
3943;SDS011;1986;52.546;13.428;2024-01-30T11:50:37;20.40;;;19.40;;
3943;SDS011;1986;52.546;13.428;2024-01-30T11:53:05;20.20;;;19.30;;
3943;SDS011;1986;52.546;13.428;2024-01-30T11:55:37;20.40;;;19.30;;
3943;SDS011;1986;52.546;13.428;2024-01-30T11:58:08;21.00;;;19.90;;
3943;SDS011;1986;52.546;13.428;2024-01-30T12:00:36;20.50;;;19.50;;
3943;SDS011;1986;52.546;13.428;2024-01-30T12:03:03;20.27;;;19.27;;
3943;SDS011;1986;52.546;13.428;2024-01-30T12:05:32;20.77;;;19.77;;
3943;SDS011;1986;52.546;13.428;2024-01-30T12:08:01;20.93;;;19.93;;
3943;SDS011;1986;52.546;13.428;2024-01-30T12:10:29;20.60;;;19.70;;
3943;SDS011;1986;52.546;13.428;2024-01-30T12:12:57;19.90;;;19.00;;
3943;SDS011;1986;52.546;13.428;2024-01-30T12:15:25;20.93;;;19.93;;
3943;SDS011;1986;52.546;13.428;2024-01-30T12:18:03;20.70;;;19.70;;
3943;SDS011;1986;52.546;13.428;2024-01-30T12:20:32;21.10;;;20.10;;
3943;SDS011;1986;52.546;13.428;2024-01-30T12:23:03;21.00;;;19.90;;
3943;SDS011;1986;52.546;13.428;2024-01-30T12:25:36;20.90;;;19.90;;
3943;SDS011;1986;52.546;13.428;2024-01-30T12:28:04;20.07;;;19.00;;
3943;SDS011;1986;52.546;13.428;2024-01-30T12:30:34;21.70;;;20.60;;
3943;SDS011;1986;52.546;13.428;2024-01-30T12:33:03;21.50;;;20.40;;
3943;SDS011;1986;52.546;13.428;2024-01-30T12:35:34;21.80;;;20.70;;
3943;SDS011;1986;52.546;13.428;2024-01-30T12:38:07;22.00;;;20.90;;
3943;SDS011;1986;52.546;13.428;2024-01-30T12:40:34;21.80;;;20.70;;
3943;SDS011;1986;52.546;13.428;2024-01-30T12:43:15;21.93;;;20.83;;
3943;SDS011;1986;52.546;13.428;2024-01-30T12:45:45;21.30;;;20.30;;
3943;SDS011;1986;52.546;13.428;2024-01-30T12:48:15;21.60;;;20.50;;
3943;SDS011;1986;52.546;13.428;2024-01-30T12:50:52;20.80;;;19.70;;
3943;SDS011;1986;52.546;13.428;2024-01-30T12:53:21;21.33;;;20.23;;
3943;SDS011;1986;52.546;13.428;2024-01-30T12:55:49;21.77;;;20.63;;
3943;SDS011;1986;52.546;13.428;2024-01-30T12:58:22;20.97;;;19.87;;
3943;SDS011;1986;52.546;13.428;2024-01-30T13:00:50;20.70;;;19.60;;
3943;SDS011;1986;52.546;13.428;2024-01-30T13:03:17;20.87;;;19.77;;
3943;SDS011;1986;52.546;13.428;2024-01-30T13:05:46;20.30;;;19.30;;
3943;SDS011;1986;52.546;13.428;2024-01-30T13:08:14;20.90;;;19.80;;
3943;SDS011;1986;52.546;13.428;2024-01-30T13:10:45;21.33;;;20.23;;
3943;SDS011;1986;52.546;13.428;2024-01-30T13:13:12;20.83;;;19.83;;
3943;SDS011;1986;52.546;13.428;2024-01-30T13:15:40;21.37;;;20.37;;
3943;SDS011;1986;52.546;13.428;2024-01-30T13:18:07;20.50;;;19.50;;
3943;SDS011;1986;52.546;13.428;2024-01-30T13:20:38;21.20;;;20.20;;
3943;SDS011;1986;52.546;13.428;2024-01-30T13:23:10;20.90;;;19.80;;
3943;SDS011;1986;52.546;13.428;2024-01-30T13:25:42;20.90;;;19.80;;
3943;SDS011;1986;52.546;13.428;2024-01-30T13:28:19;20.80;;;19.70;;
3943;SDS011;1986;52.546;13.428;2024-01-30T13:31:00;20.70;;;19.60;;
3943;SDS011;1986;52.546;13.428;2024-01-30T13:33:30;21.23;;;20.13;;
3943;SDS011;1986;52.546;13.428;2024-01-30T13:35:58;21.60;;;20.50;;
3943;SDS011;1986;52.546;13.428;2024-01-30T13:38:25;20.40;;;19.40;;
3943;SDS011;1986;52.546;13.428;2024-01-30T13:40:54;20.30;;;19.30;;
3943;SDS011;1986;52.546;13.428;2024-01-30T13:43:24;20.70;;;19.70;;
3943;SDS011;1986;52.546;13.428;2024-01-30T13:45:53;20.30;;;19.30;;
3943;SDS011;1986;52.546;13.428;2024-01-30T13:48:21;20.27;;;19.27;;
3943;SDS011;1986;52.546;13.428;2024-01-30T13:50:49;20.67;;;19.63;;
3943;SDS011;1986;52.546;13.428;2024-01-30T13:53:18;21.37;;;20.27;;
3943;SDS011;1986;52.546;13.428;2024-01-30T13:55:45;21.60;;;20.50;;
3943;SDS011;1986;52.546;13.428;2024-01-30T13:58:18;21.80;;;20.70;;
3943;SDS011;1986;52.546;13.428;2024-01-30T14:00:45;21.00;;;19.90;;
3943;SDS011;1986;52.546;13.428;2024-01-30T14:03:14;20.50;;;19.40;;
3943;SDS011;1986;52.546;13.428;2024-01-30T14:05:43;20.50;;;19.40;;
3943;SDS011;1986;52.546;13.428;2024-01-30T14:08:10;20.40;;;19.30;;
3943;SDS011;1986;52.546;13.428;2024-01-30T14:10:38;20.20;;;19.20;;
3943;SDS011;1986;52.546;13.428;2024-01-30T14:13:06;21.40;;;20.30;;
3943;SDS011;1986;52.546;13.428;2024-01-30T14:15:39;21.10;;;20.10;;
3943;SDS011;1986;52.546;13.428;2024-01-30T14:18:08;20.30;;;19.30;;
3943;SDS011;1986;52.546;13.428;2024-01-30T14:20:39;21.00;;;19.90;;
3943;SDS011;1986;52.546;13.428;2024-01-30T14:23:07;20.20;;;19.20;;
3943;SDS011;1986;52.546;13.428;2024-01-30T14:25:49;20.00;;;19.10;;
3943;SDS011;1986;52.546;13.428;2024-01-30T14:28:20;20.40;;;19.40;;
3943;SDS011;1986;52.546;13.428;2024-01-30T14:30:50;20.60;;;19.60;;
3943;SDS011;1986;52.546;13.428;2024-01-30T14:33:17;20.50;;;19.60;;
3943;SDS011;1986;52.546;13.428;2024-01-30T14:35:44;20.90;;;19.90;;
3943;SDS011;1986;52.546;13.428;2024-01-30T14:38:13;21.23;;;20.23;;
3943;SDS011;1986;52.546;13.428;2024-01-30T14:40:41;21.70;;;20.70;;
3943;SDS011;1986;52.546;13.428;2024-01-30T14:43:09;21.30;;;20.30;;
3943;SDS011;1986;52.546;13.428;2024-01-30T14:45:36;21.07;;;20.07;;
3943;SDS011;1986;52.546;13.428;2024-01-30T14:48:06;21.43;;;20.43;;
3943;SDS011;1986;52.546;13.428;2024-01-30T14:50:34;20.80;;;19.80;;
3943;SDS011;1986;52.546;13.428;2024-01-30T14:53:03;21.30;;;20.20;;
3943;SDS011;1986;52.546;13.428;2024-01-30T14:55:30;21.10;;;20.00;;
3943;SDS011;1986;52.546;13.428;2024-01-30T14:57:59;20.50;;;19.50;;
3943;SDS011;1986;52.546;13.428;2024-01-30T15:00:27;20.60;;;19.60;;
3943;SDS011;1986;52.546;13.428;2024-01-30T15:02:55;21.10;;;20.10;;
3943;SDS011;1986;52.546;13.428;2024-01-30T15:05:24;21.87;;;20.77;;